createdAt,value
2019-01-22T00:02:03.278Z,51.20
2019-01-22T00:04:31.441Z,52.30
2019-01-22T00:06:59.416Z,61.00
2019-01-22T00:09:27.379Z,52.03
2019-01-22T00:11:55.355Z,49.23
2019-01-22T00:14:23.326Z,53.33
2019-01-22T00:16:51.334Z,51.00
2019-01-22T00:19:19.290Z,52.37
2019-01-22T00:21:55.029Z,51.43
2019-01-22T00:24:23.105Z,51.57
2019-01-22T00:26:51.061Z,52.33
2019-01-22T00:29:30.869Z,52.73
2019-01-22T00:31:48.753Z,53.30
2019-01-22T00:34:16.779Z,54.23
2019-01-22T00:39:33.429Z,50.27
2019-01-22T00:42:01.487Z,54.13
2019-01-22T00:44:29.499Z,53.37
2019-01-22T00:50:05.714Z,51.27
2019-01-22T00:52:33.702Z,54.70
2019-01-22T00:55:01.653Z,51.97
2019-01-22T00:57:31.927Z,51.97
2019-01-22T01:00:00.222Z,52.70
2019-01-22T01:02:28.321Z,54.27
2019-01-22T01:04:56.463Z,52.20
2019-01-22T01:07:24.570Z,53.47
2019-01-22T01:09:52.688Z,52.07
2019-01-22T01:12:22.299Z,53.00
2019-01-22T01:14:50.322Z,51.83
2019-01-22T01:17:18.441Z,53.83
2019-01-22T01:22:54.041Z,56.23
2019-01-22T01:25:22.473Z,52.83
2019-01-22T01:27:50.397Z,56.00
2019-01-22T01:30:19.449Z,55.13
2019-01-22T01:32:47.459Z,52.80
2019-01-22T01:40:57.940Z,56.40
2019-01-22T01:43:25.909Z,53.73
2019-01-22T01:45:53.902Z,56.87
2019-01-22T01:48:21.867Z,55.33
2019-01-22T01:50:49.834Z,54.40
2019-01-22T01:53:23.693Z,54.83
2019-01-22T01:55:47.458Z,58.43
2019-01-22T01:58:15.377Z,54.63
2019-01-22T02:00:43.376Z,55.13
2019-01-22T02:03:11.348Z,61.57
2019-01-22T02:05:39.300Z,56.83
2019-01-22T02:08:07.354Z,57.67
2019-01-22T02:10:35.321Z,57.00
2019-01-22T02:13:07.918Z,56.90
2019-01-22T02:15:40.729Z,58.50
2019-01-22T02:18:27.916Z,55.57
2019-01-22T02:21:15.174Z,58.70
2019-01-22T02:24:02.281Z,56.73
2019-01-22T02:26:49.394Z,61.07
2019-01-22T02:29:36.580Z,57.33
2019-01-22T02:32:27.639Z,58.27
2019-01-22T02:35:14.610Z,58.87
2019-01-22T02:38:01.903Z,59.07
2019-01-22T02:40:32.510Z,56.43
2019-01-22T02:43:19.589Z,56.03
2019-01-22T02:46:08.430Z,52.93
2019-01-22T02:48:40.762Z,55.40
2019-01-22T02:51:27.818Z,53.50
2019-01-22T02:54:14.888Z,48.87
2019-01-22T02:57:02.108Z,47.20
2019-01-22T02:59:49.471Z,50.43
2019-01-22T03:02:36.657Z,50.77
2019-01-22T03:05:25.586Z,47.20
2019-01-22T03:08:12.800Z,47.63
2019-01-22T03:10:59.927Z,48.53
2019-01-22T03:13:46.989Z,47.63
2019-01-22T03:16:34.191Z,50.20
2019-01-22T03:19:21.274Z,45.60
2019-01-22T03:22:08.399Z,48.50
2019-01-22T03:24:55.571Z,47.03
2019-01-22T03:27:29.316Z,48.20
2019-01-22T03:30:10.617Z,48.43
2019-01-22T03:36:16.867Z,49.13
2019-01-22T03:39:04.536Z,47.53
2019-01-22T03:41:51.674Z,47.17
2019-01-22T03:44:27.661Z,47.47
2019-01-22T03:47:14.782Z,45.40
2019-01-22T03:50:01.849Z,46.33
2019-01-22T03:52:36.717Z,45.37
2019-01-22T03:57:59.341Z,44.10
2019-01-22T04:00:46.401Z,47.47
2019-01-22T04:06:28.014Z,45.40
2019-01-22T04:08:56.997Z,45.67
2019-01-22T04:11:44.117Z,45.87
2019-01-22T04:14:13.714Z,45.33
2019-01-22T04:16:41.728Z,44.60
2019-01-22T04:22:04.627Z,46.53
2019-01-22T04:24:51.703Z,47.50
2019-01-22T04:27:38.870Z,45.97
2019-01-22T04:30:27.661Z,43.83
2019-01-22T04:33:14.789Z,45.43
2019-01-22T04:35:50.594Z,44.23
2019-01-22T04:38:37.669Z,44.33
2019-01-22T04:41:24.834Z,47.33
2019-01-22T04:44:11.902Z,45.50
2019-01-22T04:46:59.065Z,44.07
2019-01-22T04:49:46.213Z,45.23
2019-01-22T04:52:33.396Z,46.57
2019-01-22T04:55:22.117Z,47.30
2019-01-22T04:58:09.344Z,45.57
2019-01-22T05:00:56.450Z,47.20
2019-01-22T05:03:43.552Z,48.33
2019-01-22T05:06:30.753Z,47.43
2019-01-22T05:09:17.896Z,45.93
2019-01-22T05:12:05.050Z,45.23
2019-01-22T05:14:52.151Z,46.67
2019-01-22T05:17:39.284Z,46.13
2019-01-22T05:20:26.442Z,47.10
2019-01-22T05:23:13.771Z,45.43
2019-01-22T05:26:00.987Z,47.37
2019-01-22T05:28:48.527Z,47.43
2019-01-22T05:31:24.085Z,47.43
2019-01-22T05:34:25.266Z,48.53
2019-01-22T05:37:00.205Z,46.17
2019-01-22T05:39:47.371Z,50.30
2019-01-22T05:42:34.459Z,48.73
2019-01-22T05:45:21.578Z,50.23
2019-01-22T05:48:13.229Z,49.90
2019-01-22T05:50:57.487Z,49.23
2019-01-22T05:53:44.584Z,50.67
2019-01-22T05:59:28.124Z,46.77
2019-01-22T06:02:15.260Z,50.77
2019-01-22T06:05:02.416Z,51.80
2019-01-22T06:10:55.283Z,49.70
2019-01-22T06:13:42.557Z,48.98
2019-01-22T06:16:29.655Z,47.03
2019-01-22T06:19:16.797Z,48.03
2019-01-22T06:22:03.899Z,51.25
2019-01-22T06:24:50.981Z,48.37
2019-01-22T06:27:24.549Z,46.40
2019-01-22T06:30:11.687Z,51.77
2019-01-22T06:32:59.072Z,48.63
2019-01-22T06:35:46.219Z,60.00
2019-01-22T06:38:33.517Z,49.40
2019-01-22T06:41:05.177Z,47.40
2019-01-22T06:43:41.864Z,45.85
2019-01-22T06:46:28.962Z,50.27
2019-01-22T06:49:16.206Z,59.03
2019-01-22T06:52:03.381Z,56.73
2019-01-22T06:54:50.487Z,49.57
2019-01-22T06:57:37.610Z,46.73
2019-01-22T07:00:16.870Z,45.60
2019-01-22T07:02:48.773Z,45.70
2019-01-22T07:05:35.960Z,47.80
2019-01-22T07:08:23.241Z,44.27
2019-01-22T07:11:10.331Z,49.10
2019-01-22T07:13:57.618Z,46.23
2019-01-22T07:16:44.685Z,47.20
2019-01-22T07:19:31.844Z,46.07
2019-01-22T07:22:18.917Z,44.67
2019-01-22T07:25:06.134Z,47.43
2019-01-22T07:27:53.338Z,58.40
2019-01-22T07:30:40.512Z,46.37
2019-01-22T07:33:41.498Z,46.73
2019-01-22T07:36:16.368Z,47.13
2019-01-22T07:42:11.314Z,46.73
2019-01-22T07:44:58.500Z,47.30
2019-01-22T07:50:58.910Z,46.73
2019-01-22T07:53:46.030Z,47.83
2019-01-22T07:56:33.124Z,48.70
2019-01-22T07:59:12.785Z,47.33
2019-01-22T08:01:59.964Z,48.40
2019-01-22T08:05:06.136Z,48.83
2019-01-22T08:07:57.373Z,46.47
2019-01-22T08:10:44.425Z,49.17
2019-01-22T08:13:31.577Z,51.83
2019-01-22T08:16:18.679Z,47.90
2019-01-22T08:18:59.569Z,47.73
2019-01-22T08:21:46.683Z,46.20
2019-01-22T08:24:17.540Z,46.50
2019-01-22T08:27:04.759Z,47.07
2019-01-22T08:29:39.818Z,49.70
2019-01-22T08:32:26.957Z,47.20
2019-01-22T08:35:14.078Z,56.30
2019-01-22T08:38:01.559Z,48.13
2019-01-22T08:40:49.057Z,52.67
2019-01-22T08:43:20.847Z,49.50
2019-01-22T08:45:53.904Z,48.03
2019-01-22T08:48:41.166Z,49.33
2019-01-22T08:51:28.550Z,46.57
2019-01-22T08:54:15.791Z,45.63
2019-01-22T08:57:02.884Z,48.43
2019-01-22T08:59:37.823Z,45.30
2019-01-22T09:02:19.797Z,45.43
2019-01-22T09:05:07.056Z,47.10
2019-01-22T09:07:54.270Z,46.37
2019-01-22T09:10:41.390Z,44.27
2019-01-22T09:13:28.726Z,49.60
2019-01-22T09:16:16.089Z,45.00
2019-01-22T09:19:03.210Z,44.10
2019-01-22T09:21:50.333Z,43.73
2019-01-22T09:24:37.596Z,44.00
2019-01-22T09:27:24.651Z,42.93
2019-01-22T09:30:11.808Z,42.00
2019-01-22T09:32:44.093Z,44.07
2019-01-22T09:35:19.280Z,40.33
2019-01-22T09:37:58.738Z,42.17
2019-01-22T09:40:26.858Z,41.40
2019-01-22T09:45:49.414Z,42.10
2019-01-22T09:48:17.494Z,42.30
2019-01-22T09:50:45.481Z,38.40
2019-01-22T09:53:13.478Z,40.17
2019-01-22T09:55:41.426Z,39.27
2019-01-22T09:58:09.491Z,41.77
2019-01-22T10:00:37.450Z,39.33
2019-01-22T10:03:05.581Z,40.40
2019-01-22T10:05:33.531Z,40.53
2019-01-22T10:08:01.669Z,39.60
2019-01-22T10:10:29.605Z,39.60
2019-01-22T10:12:57.589Z,38.47
2019-01-22T10:15:25.628Z,39.37
2019-01-22T10:17:53.630Z,38.80
2019-01-22T10:20:22.183Z,38.07
2019-01-22T10:22:50.279Z,37.33
2019-01-22T10:25:18.318Z,39.40
2019-01-22T10:27:46.335Z,37.17
2019-01-22T10:30:15.326Z,37.50
2019-01-22T10:32:43.374Z,38.50
2019-01-22T10:35:11.400Z,37.30
2019-01-22T10:37:39.323Z,38.53
2019-01-22T10:40:08.328Z,35.20
2019-01-22T10:42:36.331Z,36.13
2019-01-22T10:45:05.434Z,36.30
2019-01-22T10:47:33.454Z,36.00
2019-01-22T10:50:01.478Z,35.83
2019-01-22T10:52:29.602Z,36.37
2019-01-22T10:54:57.569Z,36.73
2019-01-22T10:57:25.570Z,36.77
2019-01-22T10:59:53.573Z,36.20
2019-01-22T11:02:21.641Z,35.83
2019-01-22T11:04:49.594Z,34.60
2019-01-22T11:07:17.582Z,35.83
2019-01-22T11:09:45.548Z,34.17
2019-01-22T11:12:13.568Z,34.70
2019-01-22T11:14:41.520Z,35.43
2019-01-22T11:17:09.484Z,35.00
2019-01-22T11:19:37.444Z,36.20
2019-01-22T11:22:05.494Z,35.30
2019-01-22T11:24:33.406Z,32.70
2019-01-22T11:27:01.458Z,37.60
2019-01-22T11:29:29.512Z,34.70
2019-01-22T11:31:57.505Z,32.57
2019-01-22T11:34:25.471Z,34.27
2019-01-22T11:36:53.456Z,35.53
2019-01-22T11:39:21.472Z,32.70
2019-01-22T11:41:49.422Z,32.87
2019-01-22T11:44:17.425Z,31.10
2019-01-22T11:46:45.425Z,33.87
2019-01-22T11:49:13.367Z,32.67
2019-01-22T11:51:41.349Z,31.93
2019-01-22T11:54:09.436Z,31.83
2019-01-22T11:56:37.388Z,31.60
2019-01-22T11:59:05.423Z,30.80
2019-01-22T12:01:33.384Z,29.77
2019-01-22T12:04:01.418Z,31.80
2019-01-22T12:06:29.349Z,31.00
2019-01-22T12:08:57.335Z,32.03
2019-01-22T12:11:25.331Z,29.87
2019-01-22T12:13:54.118Z,30.40
2019-01-22T12:16:23.246Z,29.23
2019-01-22T12:18:51.281Z,29.37
2019-01-22T12:21:38.629Z,28.67
2019-01-22T12:24:06.633Z,28.43
2019-01-22T12:26:34.640Z,28.33
2019-01-22T12:29:02.676Z,26.87
2019-01-22T12:31:30.653Z,27.90
2019-01-22T12:33:58.876Z,26.80
2019-01-22T12:36:27.071Z,27.83
2019-01-22T12:38:54.993Z,26.87
2019-01-22T12:41:22.997Z,25.30
2019-01-22T12:43:50.925Z,25.13
2019-01-22T12:46:18.906Z,23.20
2019-01-22T12:48:46.887Z,24.93
2019-01-22T12:51:14.815Z,26.10
2019-01-22T12:53:45.764Z,24.30
2019-01-22T12:56:12.675Z,22.80
2019-01-22T12:58:40.877Z,21.90
2019-01-22T13:01:08.969Z,22.17
2019-01-22T13:03:37.197Z,23.07
2019-01-22T13:06:06.193Z,22.90
2019-01-22T13:08:34.386Z,22.53
2019-01-22T13:11:02.598Z,24.63
2019-01-22T13:13:30.825Z,22.80
2019-01-22T13:15:58.969Z,22.23
2019-01-22T13:18:27.172Z,25.00
2019-01-22T13:20:55.437Z,26.00
2019-01-22T13:23:23.593Z,24.80
2019-01-22T13:25:51.756Z,23.70
2019-01-22T13:28:19.967Z,23.27
2019-01-22T13:30:48.204Z,22.77
2019-01-22T13:33:16.307Z,22.33
2019-01-22T13:35:44.496Z,24.53
2019-01-22T13:38:12.636Z,23.47
2019-01-22T13:40:40.915Z,22.90
2019-01-22T13:43:09.073Z,23.17
2019-01-22T13:45:37.260Z,22.97
2019-01-22T13:48:06.207Z,22.23
2019-01-22T13:50:34.412Z,24.17
2019-01-22T13:53:02.639Z,22.87
2019-01-22T13:55:32.344Z,21.90
2019-01-22T13:58:00.590Z,22.70
2019-01-22T14:00:29.025Z,23.17
2019-01-22T14:02:57.830Z,22.90
2019-01-22T14:05:26.098Z,22.70
2019-01-22T14:07:54.260Z,22.70
2019-01-22T14:10:23.089Z,24.23
2019-01-22T14:12:51.798Z,22.17
2019-01-22T14:15:39.036Z,22.33
2019-01-22T14:18:07.966Z,23.03
2019-01-22T14:20:36.070Z,21.47
2019-01-22T14:23:04.094Z,20.80
2019-01-22T14:25:32.307Z,20.60
2019-01-22T14:28:00.405Z,22.13
2019-01-22T14:30:29.583Z,23.13
2019-01-22T14:32:57.578Z,21.73
2019-01-22T14:35:26.231Z,22.23
2019-01-22T14:40:30.229Z,21.83
2019-01-22T14:42:58.270Z,21.77
2019-01-22T14:45:26.732Z,22.30
2019-01-22T14:47:54.851Z,21.93
2019-01-22T14:50:23.757Z,23.20
2019-01-22T14:52:51.792Z,23.47
2019-01-22T14:55:19.795Z,22.53
2019-01-22T14:57:47.813Z,23.80
2019-01-22T15:00:34.935Z,23.80
2019-01-22T15:03:02.969Z,23.87
2019-01-22T15:05:31.038Z,23.93
2019-01-22T15:07:59.089Z,25.77
2019-01-22T15:10:27.115Z,25.10
2019-01-22T15:12:56.302Z,25.57
2019-01-22T15:15:24.664Z,26.80
2019-01-22T15:17:52.556Z,29.10
2019-01-22T15:20:21.727Z,28.20
2019-01-22T15:22:49.891Z,28.40
2019-01-22T15:25:18.031Z,26.80
2019-01-22T15:27:46.915Z,28.60
2019-01-22T15:30:34.581Z,27.27
2019-01-22T15:33:02.963Z,28.57
2019-01-22T15:35:31.073Z,28.03
2019-01-22T15:37:59.026Z,26.47
2019-01-22T15:40:28.103Z,28.67
2019-01-22T15:45:45.117Z,27.00
2019-01-22T15:48:13.138Z,28.57
2019-01-22T15:50:41.432Z,28.03
2019-01-22T15:53:30.449Z,27.50
2019-01-22T15:55:58.847Z,28.53
2019-01-22T16:01:34.747Z,29.37
2019-01-22T16:04:23.957Z,29.57
2019-01-22T16:06:52.150Z,28.97
2019-01-22T16:09:20.402Z,29.47
2019-01-22T16:11:48.352Z,31.77
2019-01-22T16:14:17.673Z,29.27
2019-01-22T16:16:46.161Z,31.97
2019-01-22T16:19:15.229Z,29.73
2019-01-22T16:21:44.041Z,30.73
2019-01-22T16:24:15.681Z,28.50
2019-01-22T16:26:43.970Z,30.27
2019-01-22T16:29:12.222Z,33.80
2019-01-22T16:31:40.461Z,31.57
2019-01-22T16:34:08.629Z,32.83
2019-01-22T16:36:36.804Z,32.03
2019-01-22T16:39:07.232Z,32.83
2019-01-22T16:41:35.571Z,37.83
2019-01-22T16:44:03.946Z,38.95
2019-01-22T16:46:32.160Z,34.83
2019-01-22T16:49:00.398Z,32.00
2019-01-22T16:51:28.571Z,33.37
2019-01-22T16:53:56.781Z,33.03
2019-01-22T16:56:25.819Z,32.07
2019-01-22T16:58:54.002Z,30.77
2019-01-22T17:01:23.646Z,30.50
2019-01-22T17:03:51.804Z,29.67
2019-01-22T17:06:20.125Z,29.70
2019-01-22T17:08:48.604Z,30.77
2019-01-22T17:11:16.815Z,29.20
2019-01-22T17:13:45.669Z,28.90
2019-01-22T17:16:14.345Z,31.07
2019-01-22T17:18:42.774Z,32.40
2019-01-22T17:21:10.960Z,29.97
2019-01-22T17:23:39.199Z,30.83
2019-01-22T17:26:07.404Z,30.07
2019-01-22T17:28:35.621Z,35.35
2019-01-22T17:33:49.285Z,30.77
2019-01-22T17:36:17.285Z,32.67
2019-01-22T17:38:45.745Z,32.00
2019-01-22T17:41:14.958Z,31.57
2019-01-22T17:43:43.016Z,32.20
2019-01-22T17:46:11.035Z,31.93
2019-01-22T17:48:39.054Z,33.60
2019-01-22T17:51:07.139Z,31.57
2019-01-22T17:53:35.168Z,30.97
2019-01-22T17:56:03.229Z,33.50
2019-01-22T17:58:31.222Z,32.47
2019-01-22T18:00:59.246Z,31.50
2019-01-22T18:03:27.227Z,32.33
2019-01-22T18:05:55.230Z,34.10
2019-01-22T18:08:23.232Z,32.97
2019-01-22T18:10:51.267Z,32.67
2019-01-22T18:13:19.231Z,35.23
2019-01-22T18:15:47.270Z,33.10
2019-01-22T18:18:15.312Z,36.03
2019-01-22T18:20:43.507Z,33.60
2019-01-22T18:23:11.599Z,35.63
2019-01-22T18:25:39.600Z,34.10
2019-01-22T18:28:07.829Z,36.07
2019-01-22T18:30:35.913Z,36.13
2019-01-22T18:33:03.845Z,38.97
2019-01-22T18:35:38.101Z,36.23
2019-01-22T18:40:52.622Z,44.97
2019-01-22T18:43:20.704Z,37.97
2019-01-22T18:46:08.367Z,36.93
2019-01-22T18:48:55.481Z,43.17
2019-01-22T18:54:17.996Z,45.83
2019-01-22T18:56:46.410Z,42.27
2019-01-22T18:59:15.041Z,38.60
2019-01-22T19:01:43.371Z,42.40
2019-01-22T19:04:12.281Z,42.77
2019-01-22T19:06:54.968Z,38.70
2019-01-22T19:09:11.806Z,41.03
2019-01-22T19:14:47.697Z,41.23
2019-01-22T19:23:19.971Z,39.40
2019-01-22T19:26:02.506Z,41.77
2019-01-22T19:28:18.220Z,41.07
2019-01-22T19:30:46.203Z,43.53
2019-01-22T19:33:14.755Z,40.10
2019-01-22T19:38:50.394Z,44.57
2019-01-22T19:41:19.008Z,41.17
2019-01-22T19:43:47.023Z,40.03
2019-01-22T19:46:17.522Z,41.43
2019-01-22T19:48:46.243Z,39.40
2019-01-22T19:51:33.800Z,40.63
2019-01-22T19:54:02.792Z,41.60
2019-01-22T19:56:32.456Z,41.37
2019-01-22T19:59:00.618Z,43.57
2019-01-22T20:01:28.927Z,39.00
2019-01-22T20:03:57.071Z,38.63
2019-01-22T20:06:25.281Z,39.87
2019-01-22T20:08:53.481Z,39.50
2019-01-22T20:11:21.724Z,40.80
2019-01-22T20:13:49.901Z,37.63
2019-01-22T20:16:18.235Z,39.87
2019-01-22T20:18:46.559Z,37.73
2019-01-22T20:21:14.893Z,39.27
2019-01-22T20:23:43.042Z,39.67
2019-01-22T20:26:11.271Z,38.50
2019-01-22T20:28:39.478Z,37.60
2019-01-22T20:33:56.166Z,38.80
2019-01-22T20:36:24.206Z,39.17
2019-01-22T20:38:52.236Z,36.83
2019-01-22T20:41:20.246Z,38.53
2019-01-22T20:43:48.292Z,36.27
2019-01-22T20:46:16.319Z,36.87
2019-01-22T20:48:44.368Z,38.23
2019-01-22T20:51:12.361Z,37.47
2019-01-22T20:53:40.328Z,43.65
2019-01-22T20:56:08.388Z,36.47
2019-01-22T20:58:40.483Z,36.10
2019-01-22T21:01:06.041Z,36.77
2019-01-22T21:03:34.068Z,41.05
2019-01-22T21:06:02.170Z,34.90
2019-01-22T21:08:30.191Z,36.23
2019-01-22T21:10:58.281Z,37.17
2019-01-22T21:13:26.290Z,36.57
2019-01-22T21:16:13.411Z,35.83
2019-01-22T21:18:41.393Z,42.35
2019-01-22T21:21:09.398Z,42.45
2019-01-22T21:23:37.398Z,37.40
2019-01-22T21:26:05.414Z,35.87
2019-01-22T21:28:33.388Z,34.90
2019-01-22T21:31:01.449Z,36.60
2019-01-22T21:33:29.509Z,35.63
2019-01-22T21:35:57.492Z,36.77
2019-01-22T21:38:25.540Z,35.70
2019-01-22T21:40:53.567Z,36.20
2019-01-22T21:43:21.604Z,34.40
2019-01-22T21:45:49.578Z,33.93
2019-01-22T21:48:17.862Z,34.40
2019-01-22T21:50:45.904Z,40.60
2019-01-22T21:53:13.934Z,35.47
2019-01-22T21:55:41.938Z,33.67
2019-01-22T21:58:10.066Z,35.47
2019-01-22T22:00:38.076Z,34.60
2019-01-22T22:03:06.151Z,33.73
2019-01-22T22:05:34.344Z,34.43
2019-01-22T22:08:02.383Z,34.80
2019-01-22T22:10:30.385Z,35.57
2019-01-22T22:12:58.371Z,34.10
2019-01-22T22:15:26.408Z,34.37
2019-01-22T22:17:54.435Z,41.05
2019-01-22T22:20:22.543Z,35.73
2019-01-22T22:22:56.085Z,34.97
2019-01-22T22:25:25.104Z,35.13
2019-01-22T22:27:53.725Z,36.30
2019-01-22T22:30:26.262Z,34.57
2019-01-22T22:32:54.639Z,33.77
2019-01-22T22:35:22.633Z,40.73
2019-01-22T22:37:50.615Z,34.40
2019-01-22T22:43:12.757Z,34.23
2019-01-22T22:45:40.779Z,41.70
2019-01-22T22:48:08.894Z,36.80
2019-01-22T22:50:36.876Z,32.07
2019-01-22T22:53:04.909Z,33.33
2019-01-22T22:55:33.441Z,33.77
2019-01-22T22:58:01.472Z,32.87
2019-01-22T23:03:28.466Z,35.37
2019-01-22T23:05:56.501Z,36.87
2019-01-22T23:08:24.487Z,35.93
2019-01-22T23:10:52.599Z,35.80
2019-01-22T23:13:20.558Z,38.63
2019-01-22T23:15:48.532Z,38.10
2019-01-22T23:18:16.521Z,36.67
2019-01-22T23:20:44.545Z,40.70
2019-01-22T23:23:12.570Z,39.53
2019-01-22T23:28:29.126Z,38.80
2019-01-22T23:30:57.129Z,40.23
2019-01-22T23:33:25.144Z,41.80
2019-01-22T23:35:53.206Z,40.50
2019-01-22T23:41:29.050Z,43.57
2019-01-22T23:43:57.328Z,45.17
2019-01-22T23:46:25.616Z,46.70
2019-01-22T23:48:53.869Z,48.70
2019-01-22T23:51:22.058Z,48.17
2019-01-22T23:53:50.289Z,49.00
2019-01-22T23:56:18.557Z,50.83
2019-01-22T23:58:46.769Z,48.20
